createdAt,value
2022-10-11T03:09:53.294Z,0.50
2022-10-11T03:12:55.719Z,1.45
2022-10-11T03:16:03.161Z,2.95
2022-10-11T03:19:06.146Z,2.37
2022-10-11T03:22:08.185Z,1.17
2022-10-11T03:25:10.759Z,1.77
2022-10-11T03:28:12.821Z,1.48
2022-10-11T03:31:15.173Z,2.53
2022-10-11T03:34:17.216Z,2.08
2022-10-11T03:37:21.949Z,1.15
2022-10-11T03:40:24.005Z,1.30
2022-10-11T03:43:26.368Z,1.67
2022-10-11T03:46:28.426Z,2.75
2022-10-11T03:49:31.149Z,1.70
2022-10-11T03:52:33.908Z,1.77
2022-10-11T03:55:38.678Z,2.30
2022-10-11T03:58:41.572Z,1.50
2022-10-11T04:01:44.006Z,2.85
2022-10-11T04:04:46.354Z,1.58
2022-10-11T04:07:48.399Z,1.98
2022-10-11T04:10:50.834Z,1.67
2022-10-11T04:13:53.026Z,1.77
2022-10-11T04:16:59.533Z,2.17
2022-10-11T04:20:02.375Z,1.52
2022-10-11T04:23:04.987Z,2.00
2022-10-11T04:26:08.769Z,2.17
2022-10-11T04:29:11.847Z,1.30
2022-10-11T04:32:13.906Z,1.90
2022-10-11T04:35:16.290Z,2.47
2022-10-11T04:38:18.339Z,2.45
2022-10-11T04:41:20.645Z,1.95
2022-10-11T04:44:22.735Z,1.73
2022-10-11T04:47:25.182Z,2.83
2022-10-11T04:50:27.225Z,1.83
2022-10-11T04:53:32.609Z,2.70
2022-10-11T04:56:34.670Z,2.83
2022-10-11T04:59:37.021Z,2.25
2022-10-11T05:02:39.052Z,2.00
2022-10-11T05:05:41.368Z,1.83
2022-10-11T05:08:43.444Z,1.95
2022-10-11T05:11:45.882Z,2.33
2022-10-11T05:14:47.920Z,2.50
2022-10-11T05:17:50.223Z,3.58
2022-10-11T05:21:00.284Z,2.12
2022-10-11T05:24:02.682Z,2.42
2022-10-11T05:27:04.738Z,2.58
2022-10-11T05:30:07.937Z,1.77
2022-10-11T05:33:09.978Z,1.20
2022-10-11T05:36:12.801Z,2.85
2022-10-11T05:39:14.882Z,2.55
2022-10-11T05:42:17.356Z,2.72
2022-10-11T05:45:19.395Z,2.75
2022-10-11T05:48:22.031Z,2.37
2022-10-11T05:51:24.075Z,2.65
2022-10-11T05:54:29.979Z,2.35
2022-10-11T05:57:32.058Z,2.33
2022-10-11T06:00:38.054Z,1.92
2022-10-11T06:03:40.462Z,2.00
2022-10-11T06:06:42.495Z,2.28
2022-10-11T06:09:44.817Z,2.25
2022-10-11T06:12:46.914Z,2.65
2022-10-11T06:15:49.241Z,2.20
2022-10-11T06:18:55.282Z,2.25
2022-10-11T06:24:59.481Z,1.70
2022-10-11T06:28:01.910Z,2.22
2022-10-11T06:31:06.026Z,2.05
2022-10-11T06:34:08.326Z,2.37
2022-10-11T06:37:10.388Z,2.15
2022-10-11T06:40:12.802Z,1.98
2022-10-11T06:43:14.828Z,2.37
2022-10-11T06:46:18.600Z,2.30
2022-10-11T06:49:23.263Z,2.50
2022-10-11T06:52:25.925Z,1.70
2022-10-11T06:55:27.972Z,1.85
2022-10-11T06:58:30.655Z,1.65
2022-10-11T07:01:33.321Z,2.25
2022-10-11T07:04:35.780Z,2.90
2022-10-11T07:07:37.879Z,2.25
2022-10-11T07:10:40.433Z,2.37
2022-10-11T07:13:42.735Z,2.10
2022-10-11T07:16:45.064Z,2.20
2022-10-11T07:19:47.303Z,1.73
2022-10-11T07:22:49.617Z,1.67
2022-10-11T07:25:54.644Z,1.55
2022-10-11T07:28:57.320Z,1.87
2022-10-11T07:31:59.603Z,1.83
2022-10-11T07:35:01.899Z,1.52
2022-10-11T07:38:05.071Z,2.35
2022-10-11T07:41:08.784Z,1.65
2022-10-11T07:44:10.808Z,2.17
2022-10-11T07:47:13.408Z,2.50
2022-10-11T07:50:15.537Z,2.35
2022-10-11T07:53:17.876Z,1.80
2022-10-11T07:56:23.054Z,1.65
2022-10-11T07:59:25.405Z,1.40
2022-10-11T08:02:27.460Z,2.62
2022-10-11T08:05:30.478Z,1.98
2022-10-11T08:08:32.863Z,3.08
2022-10-11T08:11:37.114Z,1.92
2022-10-11T08:14:41.444Z,2.42
2022-10-11T08:17:43.848Z,3.40
2022-10-11T08:20:46.082Z,2.72
2022-10-11T08:23:48.576Z,2.25
2022-10-11T08:26:51.426Z,1.73
2022-10-11T08:29:53.728Z,2.45
2022-10-11T08:32:55.828Z,1.90
2022-10-11T08:35:58.408Z,1.95
2022-10-11T08:39:01.067Z,2.22
2022-10-11T08:42:10.857Z,2.37
2022-10-11T08:45:32.985Z,2.50
2022-10-11T08:48:49.146Z,2.00
2022-10-11T08:52:00.037Z,1.77
2022-10-11T08:55:08.260Z,2.97
2022-10-11T08:58:16.930Z,2.28
2022-10-11T09:01:23.809Z,2.58
2022-10-11T09:04:26.014Z,3.05
2022-10-11T09:07:42.028Z,4.75
2022-10-11T09:11:05.889Z,3.50
2022-10-11T09:14:42.522Z,2.80
2022-10-11T09:17:54.978Z,3.73
2022-10-11T09:21:16.573Z,2.72
2022-10-11T09:24:45.597Z,3.22
2022-10-11T09:28:08.549Z,3.83
2022-10-11T09:31:11.848Z,3.10
2022-10-11T09:34:16.056Z,2.55
2022-10-11T09:37:24.587Z,2.85
2022-10-11T09:40:44.936Z,3.47
2022-10-11T09:43:49.452Z,3.00
2022-10-11T09:46:53.770Z,5.10
2022-10-11T09:50:13.415Z,4.37
2022-10-11T09:53:15.770Z,3.47
2022-10-11T09:56:18.265Z,3.10
2022-10-11T09:59:29.467Z,3.80
2022-10-11T10:02:41.163Z,4.30
2022-10-11T10:05:43.484Z,3.58
2022-10-11T10:08:47.418Z,3.60
2022-10-11T10:11:49.797Z,3.85
2022-10-11T10:15:17.763Z,3.70
2022-10-11T10:18:54.471Z,3.83
2022-10-11T10:21:57.061Z,3.92
2022-10-11T10:25:02.562Z,3.55
2022-10-11T10:28:17.749Z,3.78
2022-10-11T10:31:26.421Z,3.30
2022-10-11T10:34:33.808Z,4.05
2022-10-11T10:38:03.192Z,3.22
2022-10-11T10:41:09.821Z,3.50
2022-10-11T10:44:12.202Z,3.53
2022-10-11T10:47:29.200Z,3.95
2022-10-11T10:50:52.471Z,3.37
2022-10-11T10:54:08.557Z,3.53
2022-10-11T10:57:18.357Z,3.00
2022-10-11T11:00:22.894Z,3.35
2022-10-11T11:03:34.458Z,3.97
2022-10-11T11:06:58.758Z,4.00
2022-10-11T11:10:13.100Z,4.07
2022-10-11T11:13:55.092Z,4.55
2022-10-11T11:17:24.926Z,3.45
2022-10-11T11:20:44.852Z,2.97
2022-10-11T11:24:03.546Z,3.55
2022-10-11T11:27:24.671Z,4.07
2022-10-11T11:30:48.543Z,3.97
2022-10-11T11:34:00.081Z,3.83
2022-10-11T11:37:17.621Z,3.78
2022-10-11T11:40:39.314Z,3.28
2022-10-11T11:44:06.742Z,4.40
2022-10-11T11:47:17.881Z,4.07
2022-10-11T11:50:23.743Z,3.53
2022-10-11T11:53:47.475Z,4.80
2022-10-11T11:57:40.700Z,3.80
2022-10-11T12:00:58.295Z,3.53
2022-10-11T12:04:12.779Z,3.90
2022-10-11T12:07:18.342Z,3.50
2022-10-11T12:13:32.482Z,3.83
2022-10-11T12:16:35.045Z,3.20
2022-10-11T12:19:39.867Z,4.03
2022-10-11T12:22:54.251Z,3.95
2022-10-11T12:26:18.267Z,3.58
2022-10-11T12:29:47.028Z,4.20
2022-10-11T12:32:51.009Z,3.83
2022-10-11T12:35:53.288Z,4.28
2022-10-11T12:39:20.374Z,3.25
2022-10-11T12:42:29.969Z,3.65
2022-10-11T12:45:34.100Z,3.45
2022-10-11T12:48:51.092Z,4.50
2022-10-11T12:52:21.753Z,3.87
2022-10-11T12:55:41.762Z,4.10
2022-10-11T12:58:48.069Z,3.67
2022-10-11T13:01:54.135Z,3.78
2022-10-11T13:08:37.535Z,3.90
2022-10-11T13:11:48.113Z,3.85
2022-10-11T13:15:03.817Z,4.15
2022-10-11T13:18:05.934Z,4.00
2022-10-11T13:21:26.828Z,4.60
2022-10-11T13:24:37.225Z,2.60
2022-10-11T13:27:39.700Z,4.45
2022-10-11T13:30:52.057Z,4.12
2022-10-11T13:33:56.844Z,4.03
2022-10-11T13:36:59.034Z,3.08
2022-10-11T13:40:01.797Z,3.37
2022-10-11T13:43:06.253Z,3.87
2022-10-11T13:46:19.294Z,3.95
2022-10-11T13:49:40.232Z,4.32
2022-10-11T13:52:56.283Z,3.78
2022-10-11T13:56:01.147Z,3.62
2022-10-11T13:59:04.474Z,4.53
2022-10-11T14:02:23.776Z,3.85
2022-10-11T14:05:41.258Z,3.75
2022-10-11T14:08:47.202Z,3.75
2022-10-11T14:11:49.988Z,3.47
2022-10-11T14:14:52.475Z,4.32
2022-10-11T14:17:54.801Z,3.85
2022-10-11T14:20:56.961Z,3.53
2022-10-11T14:24:05.406Z,3.72
2022-10-11T14:27:14.649Z,3.60
2022-10-11T14:30:27.294Z,3.30
2022-10-11T14:33:29.911Z,3.55
2022-10-11T14:36:32.389Z,3.83
2022-10-11T14:39:34.480Z,4.57
2022-10-11T14:42:36.783Z,3.40
2022-10-11T14:45:39.055Z,3.80
2022-10-11T14:48:54.842Z,3.72
2022-10-11T14:51:59.296Z,3.92
2022-10-11T14:55:01.874Z,3.22
2022-10-11T14:58:05.314Z,3.05
2022-10-11T15:01:12.193Z,3.75
2022-10-11T15:04:14.263Z,5.12
2022-10-11T15:07:16.628Z,3.75
2022-10-11T15:10:25.989Z,3.80
2022-10-11T15:13:28.294Z,3.40
2022-10-11T15:16:30.557Z,3.75
2022-10-11T15:19:32.928Z,2.97
